Time;durP1;ratioP1;P1;durP2;ratioP2;P2;SDS_P1;SDS_P2;PMS_P1;PMS_P2;Temp;Humidity;BMP_temperature;BMP_pressure;BME280_temperature;BME280_humidity;BME280_pressure;Samples;Min_cycle;Max_cycle;Signal;HPM_P1;HPM_P2
2024/03/10 00:00:20;;;;;;;10.57;8.75;;;;;;;;;;6244056;23;20619;-50
2024/03/10 00:02:49;;;;;;;11.77;9.20;;;;;;;;;;6244057;23;20166;-49
2024/03/10 00:05:16;;;;;;;10.25;8.73;;;;;;;;;;6243931;22;20204;-50
2024/03/10 00:07:45;;;;;;;10.00;8.65;;;;;;;;;;6243272;22;20193;-49
2024/03/10 00:10:14;;;;;;;11.50;8.82;;;;;;;;;;6243689;23;20177;-45
2024/03/10 00:12:42;;;;;;;8.82;7.38;;;;;;;;;;6244147;23;20683;-50
2024/03/10 00:15:11;;;;;;;8.77;7.97;;;;;;;;;;6243738;22;20196;-46
2024/03/10 00:17:39;;;;;;;8.98;7.57;;;;;;;;;;6245726;22;20228;-47
2024/03/10 00:20:10;;;;;;;10.07;8.73;;;;;;;;;;6245540;22;20177;-46
2024/03/10 00:22:38;;;;;;;8.43;6.55;;;;;;;;;;6245222;22;20255;-47
2024/03/10 00:25:08;;;;;;;7.43;6.57;;;;;;;;;;6245872;23;20660;-49
2024/03/10 00:27:36;;;;;;;9.20;8.13;;;;;;;;;;6245348;22;20193;-48
2024/03/10 00:30:05;;;;;;;9.48;8.52;;;;;;;;;;6245164;22;20208;-46
2024/03/10 00:32:32;;;;;;;14.60;11.13;;;;;;;;;;6245505;23;20209;-50
2024/03/10 00:35:01;;;;;;;10.40;9.35;;;;;;;;;;6245547;22;20180;-51
2024/03/10 00:37:30;;;;;;;11.25;8.20;;;;;;;;;;6245265;23;20201;-49
2024/03/10 00:39:57;;;;;;;9.98;8.40;;;;;;;;;;6245430;22;20180;-46
2024/03/10 00:42:25;;;;;;;9.95;8.70;;;;;;;;;;6245677;22;20173;-47
2024/03/10 00:44:52;;;;;;;8.75;7.82;;;;;;;;;;6245314;22;20204;-51
2024/03/10 00:47:20;;;;;;;11.65;8.88;;;;;;;;;;6245271;22;20197;-47
2024/03/10 00:49:48;;;;;;;9.63;8.55;;;;;;;;;;6245378;22;20189;-48
2024/03/10 00:52:15;;;;;;;10.82;8.63;;;;;;;;;;6245526;22;20515;-47
2024/03/10 00:54:44;;;;;;;9.52;7.90;;;;;;;;;;6244748;22;20179;-46
2024/03/10 00:57:13;;;;;;;10.45;8.20;;;;;;;;;;6245013;22;20197;-47
2024/03/10 00:59:42;;;;;;;9.52;7.82;;;;;;;;;;6245632;23;20165;-47
2024/03/10 01:02:10;;;;;;;9.23;8.05;;;;;;;;;;6245493;22;20184;-47
2024/03/10 01:04:38;;;;;;;13.23;9.75;;;;;;;;;;6245583;23;20177;-47
2024/03/10 01:07:05;;;;;;;8.02;7.22;;;;;;;;;;6244546;22;20211;-49
2024/03/10 01:09:33;;;;;;;8.13;7.32;;;;;;;;;;6245169;22;20173;-46
2024/03/10 01:12:02;;;;;;;10.20;8.02;;;;;;;;;;6244955;22;20177;-45
2024/03/10 01:14:29;;;;;;;9.57;7.88;;;;;;;;;;6244983;22;20227;-46
2024/03/10 01:16:57;;;;;;;8.13;7.32;;;;;;;;;;6244463;22;20189;-49
2024/03/10 01:19:24;;;;;;;11.68;9.75;;;;;;;;;;6244699;22;20177;-47
2024/03/10 01:21:51;;;;;;;8.23;7.38;;;;;;;;;;6244871;22;20177;-47
2024/03/10 01:24:21;;;;;;;10.10;8.25;;;;;;;;;;6245947;22;20179;-47
2024/03/10 01:26:49;;;;;;;8.00;7.20;;;;;;;;;;6244565;23;20207;-51
2024/03/10 01:29:17;;;;;;;8.60;7.50;;;;;;;;;;6245161;22;20188;-47
2024/03/10 01:31:46;;;;;;;9.73;8.80;;;;;;;;;;6245011;22;20173;-49
2024/03/10 01:34:14;;;;;;;9.48;8.48;;;;;;;;;;6245447;22;20680;-51
2024/03/10 01:36:42;;;;;;;9.63;7.63;;;;;;;;;;6244663;23;20207;-47
2024/03/10 01:39:09;;;;;;;8.90;7.57;;;;;;;;;;6244535;22;20183;-46
2024/03/10 01:41:37;;;;;;;8.95;8.05;;;;;;;;;;6244501;22;20180;-51
2024/03/10 01:44:05;;;;;;;10.27;8.82;;;;;;;;;;6244790;22;20180;-47
2024/03/10 01:46:36;;;;;;;10.88;9.32;;;;;;;;;;6244744;23;20197;-47
2024/03/10 01:49:04;;;;;;;10.38;8.63;;;;;;;;;;6245039;23;20471;-48
2024/03/10 01:51:32;;;;;;;8.43;7.53;;;;;;;;;;6244846;22;20177;-45
2024/03/10 01:54:00;;;;;;;11.77;9.00;;;;;;;;;;6244300;22;20173;-49
2024/03/10 01:56:27;;;;;;;10.95;9.60;;;;;;;;;;6244948;23;20184;-46
2024/03/10 01:58:55;;;;;;;9.88;8.30;;;;;;;;;;6244602;22;20173;-46
2024/03/10 02:01:23;;;;;;;11.63;9.20;;;;;;;;;;6244439;22;20496;-48
2024/03/10 02:03:52;;;;;;;10.35;8.52;;;;;;;;;;6244400;22;20183;-46
2024/03/10 02:06:19;;;;;;;10.88;8.93;;;;;;;;;;6244128;22;20525;-46
2024/03/10 02:08:47;;;;;;;13.63;10.23;;;;;;;;;;6244115;22;20181;-48
2024/03/10 02:11:15;;;;;;;11.30;8.98;;;;;;;;;;6244621;22;20185;-48
2024/03/10 02:13:43;;;;;;;10.68;8.48;;;;;;;;;;6244874;22;20188;-48
2024/03/10 02:16:10;;;;;;;13.80;10.43;;;;;;;;;;6244319;22;20629;-46
2024/03/10 02:18:38;;;;;;;10.50;9.02;;;;;;;;;;6244054;22;20256;-48
2024/03/10 02:21:08;;;;;;;10.32;9.23;;;;;;;;;;6244189;22;20231;-47
2024/03/10 02:23:41;;;;;;;13.23;10.60;;;;;;;;;;6245728;22;20239;-49
2024/03/10 02:26:15;;;;;;;16.15;10.73;;;;;;;;;;6245504;22;20260;-49
2024/03/10 02:28:57;;;;;;;11.98;9.85;;;;;;;;;;6245761;22;20165;-46
2024/03/10 02:48:08;;;;;;;10.63;9.32;;;;;;;;;;6244312;23;20207;-46
2024/03/10 02:50:36;;;;;;;11.13;9.95;;;;;;;;;;6244841;23;20219;-46
2024/03/10 02:53:04;;;;;;;11.80;9.77;;;;;;;;;;6244486;22;20185;-50
2024/03/10 02:55:33;;;;;;;10.43;9.18;;;;;;;;;;6245020;23;20260;-49
2024/03/10 02:58:03;;;;;;;11.50;8.73;;;;;;;;;;6245312;23;20720;-52
2024/03/10 03:00:32;;;;;;;13.43;10.15;;;;;;;;;;6245224;23;20166;-46
2024/03/10 03:03:00;;;;;;;13.00;11.23;;;;;;;;;;6244562;22;20180;-46
2024/03/10 03:05:27;;;;;;;10.52;9.30;;;;;;;;;;6244050;22;20177;-46
2024/03/10 03:07:55;;;;;;;13.73;9.60;;;;;;;;;;6243841;22;20204;-48
2024/03/10 03:10:22;;;;;;;10.90;8.25;;;;;;;;;;6243959;22;20564;-46
2024/03/10 03:12:51;;;;;;;9.07;7.50;;;;;;;;;;6244249;22;20513;-50
2024/03/10 03:15:20;;;;;;;9.88;8.13;;;;;;;;;;6244773;22;20177;-47
2024/03/10 03:17:48;;;;;;;11.95;9.95;;;;;;;;;;6243707;22;20525;-48
2024/03/10 03:20:21;;;;;;;12.07;9.85;;;;;;;;;;6244649;22;20180;-46
2024/03/10 03:22:49;;;;;;;11.60;9.55;;;;;;;;;;6244604;23;20196;-47
2024/03/10 03:25:18;;;;;;;10.73;9.63;;;;;;;;;;6244658;23;20184;-50
2024/03/10 03:27:48;;;;;;;12.13;9.73;;;;;;;;;;6243055;22;20201;-49
2024/03/10 03:30:17;;;;;;;12.00;9.10;;;;;;;;;;6244171;23;20173;-48
2024/03/10 03:32:49;;;;;;;13.00;10.77;;;;;;;;;;6244783;22;20504;-48
2024/03/10 03:35:16;;;;;;;14.77;11.07;;;;;;;;;;6243876;22;20165;-47
2024/03/10 03:37:45;;;;;;;12.82;11.52;;;;;;;;;;6243328;22;20239;-51
2024/03/10 03:40:14;;;;;;;12.20;9.77;;;;;;;;;;6244175;22;20207;-47
2024/03/10 03:42:41;;;;;;;13.02;11.40;;;;;;;;;;6244302;23;20174;-47
2024/03/10 03:45:10;;;;;;;12.15;10.65;;;;;;;;;;6244138;22;20236;-50
2024/03/10 03:47:38;;;;;;;15.40;11.45;;;;;;;;;;6243501;22;20276;-47
2024/03/10 03:50:07;;;;;;;12.13;10.90;;;;;;;;;;6244844;22;20184;-46
2024/03/10 03:52:36;;;;;;;14.95;10.88;;;;;;;;;;6245874;22;20177;-51
2024/03/10 03:55:04;;;;;;;12.15;10.43;;;;;;;;;;6246037;22;20223;-47
2024/03/10 03:57:31;;;;;;;14.55;11.65;;;;;;;;;;6245463;22;20193;-47
2024/03/10 03:59:59;;;;;;;14.63;12.05;;;;;;;;;;6245245;22;20173;-47
2024/03/10 04:02:26;;;;;;;17.25;11.52;;;;;;;;;;6246043;22;20268;-50
2024/03/10 04:04:54;;;;;;;13.57;12.18;;;;;;;;;;6245712;22;20179;-48
2024/03/10 04:07:23;;;;;;;14.82;11.77;;;;;;;;;;6245212;22;20660;-47
2024/03/10 04:09:51;;;;;;;14.30;11.32;;;;;;;;;;6245875;22;20209;-48
2024/03/10 04:12:19;;;;;;;15.63;12.77;;;;;;;;;;6245689;22;20183;-47
2024/03/10 04:14:46;;;;;;;15.73;13.18;;;;;;;;;;6245781;22;20196;-48
2024/03/10 04:17:13;;;;;;;16.33;12.13;;;;;;;;;;6245565;22;20195;-49
2024/03/10 04:19:41;;;;;;;11.85;10.32;;;;;;;;;;6245372;22;20180;-47
2024/03/10 04:22:09;;;;;;;16.48;12.18;;;;;;;;;;6245796;22;20179;-51
2024/03/10 04:24:39;;;;;;;12.88;10.93;;;;;;;;;;6244919;22;20589;-51
2024/03/10 04:27:08;;;;;;;16.83;12.15;;;;;;;;;;6244382;22;20205;-49
2024/03/10 04:29:35;;;;;;;12.80;11.32;;;;;;;;;;6246470;22;20507;-49
2024/03/10 04:32:06;;;;;;;14.20;12.07;;;;;;;;;;6245440;22;20264;-47
2024/03/10 04:34:34;;;;;;;14.18;12.07;;;;;;;;;;6245523;22;20157;-50
2024/03/10 04:37:01;;;;;;;16.13;12.02;;;;;;;;;;6244717;22;20279;-46
2024/03/10 04:39:29;;;;;;;13.18;10.90;;;;;;;;;;6245032;22;20188;-47
2024/03/10 04:41:58;;;;;;;14.45;11.43;;;;;;;;;;6244835;22;20243;-48
2024/03/10 04:44:26;;;;;;;12.48;11.18;;;;;;;;;;6245636;22;20180;-47
2024/03/10 04:46:53;;;;;;;16.23;12.13;;;;;;;;;;6244653;22;20197;-46
2024/03/10 04:49:20;;;;;;;12.15;10.93;;;;;;;;;;6244711;22;20173;-46
2024/03/10 04:51:48;;;;;;;15.43;11.35;;;;;;;;;;6245166;22;20644;-46
2024/03/10 04:54:15;;;;;;;11.98;10.60;;;;;;;;;;6245048;22;20173;-46
2024/03/10 04:56:43;;;;;;;12.43;11.00;;;;;;;;;;6244448;22;20193;-47
2024/03/10 04:59:12;;;;;;;13.52;11.85;;;;;;;;;;6244261;22;20169;-46
2024/03/10 05:01:39;;;;;;;14.40;12.90;;;;;;;;;;6245031;22;20180;-47
2024/03/10 05:04:09;;;;;;;14.90;12.95;;;;;;;;;;6245196;22;20181;-51
2024/03/10 05:06:37;;;;;;;13.82;11.13;;;;;;;;;;6244740;22;20271;-48
2024/03/10 05:09:04;;;;;;;15.55;12.55;;;;;;;;;;6245261;22;20533;-48
2024/03/10 05:11:32;;;;;;;14.60;11.90;;;;;;;;;;6244708;22;20256;-48
2024/03/10 05:14:00;;;;;;;16.40;13.02;;;;;;;;;;6244535;22;20511;-49
2024/03/10 05:16:28;;;;;;;17.98;13.38;;;;;;;;;;6244430;22;20207;-48
2024/03/10 05:18:56;;;;;;;14.00;11.75;;;;;;;;;;6245283;22;20173;-48
2024/03/10 05:21:24;;;;;;;11.35;10.07;;;;;;;;;;6244792;22;20549;-49
2024/03/10 05:23:53;;;;;;;14.60;12.90;;;;;;;;;;6245236;22;20644;-48
2024/03/10 05:26:20;;;;;;;13.25;11.85;;;;;;;;;;6244733;22;20227;-47
2024/03/10 05:28:48;;;;;;;10.98;9.50;;;;;;;;;;6244215;22;20517;-46
2024/03/10 05:31:30;;;;;;;13.18;10.05;;;;;;;;;;6244506;22;20173;-47
2024/03/10 05:33:59;;;;;;;11.98;9.73;;;;;;;;;;6244923;22;20173;-49
2024/03/10 05:36:26;;;;;;;13.23;11.82;;;;;;;;;;6244431;23;20180;-50
2024/03/10 05:38:54;;;;;;;12.73;11.40;;;;;;;;;;6244516;22;20252;-47
2024/03/10 05:41:22;;;;;;;14.40;12.10;;;;;;;;;;6243995;22;20175;-46
2024/03/10 05:43:50;;;;;;;14.50;11.18;;;;;;;;;;6244080;22;20195;-46
2024/03/10 05:46:17;;;;;;;13.48;12.07;;;;;;;;;;6244685;22;20172;-46
2024/03/10 05:48:47;;;;;;;14.77;12.60;;;;;;;;;;6244102;22;20200;-49
2024/03/10 05:51:14;;;;;;;16.30;12.57;;;;;;;;;;6244773;22;20184;-47
2024/03/10 05:53:42;;;;;;;14.50;13.00;;;;;;;;;;6244692;22;20244;-51
2024/03/10 05:56:10;;;;;;;16.52;13.82;;;;;;;;;;6243949;22;20177;-48
2024/03/10 05:58:39;;;;;;;15.27;13.00;;;;;;;;;;6244372;22;20653;-50
2024/03/10 06:01:07;;;;;;;13.27;11.88;;;;;;;;;;6244843;22;20177;-50
2024/03/10 06:03:34;;;;;;;18.10;13.15;;;;;;;;;;6244824;22;20177;-45
2024/03/10 06:06:03;;;;;;;16.77;13.93;;;;;;;;;;6244907;22;20195;-46
2024/03/10 06:08:31;;;;;;;14.23;12.05;;;;;;;;;;6245137;22;20200;-45
2024/03/10 06:10:59;;;;;;;18.23;12.00;;;;;;;;;;6244387;22;20177;-47
2024/03/10 06:13:28;;;;;;;14.00;12.50;;;;;;;;;;6244817;22;20173;-48
2024/03/10 06:15:55;;;;;;;15.65;13.50;;;;;;;;;;6244850;22;20179;-49
2024/03/10 06:18:24;;;;;;;15.48;12.48;;;;;;;;;;6244800;22;20189;-45
2024/03/10 06:26:37;;;;;;;15.70;12.27;;;;;;;;;;6181457;23;20194;-46
2024/03/10 06:29:05;;;;;;;16.60;13.05;;;;;;;;;;6181167;23;20198;-46
2024/03/10 06:31:32;;;;;;;16.73;13.27;;;;;;;;;;6208006;22;20173;-47
2024/03/10 06:34:00;;;;;;;14.30;12.68;;;;;;;;;;6244898;22;20188;-47
2024/03/10 06:36:27;;;;;;;12.45;10.82;;;;;;;;;;6244148;22;20664;-49
2024/03/10 06:38:57;;;;;;;12.60;11.25;;;;;;;;;;6244017;22;20244;-46
2024/03/10 06:41:24;;;;;;;17.42;12.73;;;;;;;;;;6244277;22;20176;-47
2024/03/10 06:43:53;;;;;;;14.00;12.50;;;;;;;;;;6244802;22;20172;-49
2024/03/10 06:46:21;;;;;;;15.32;12.02;;;;;;;;;;6244901;22;20181;-45
2024/03/10 06:48:48;;;;;;;15.98;13.43;;;;;;;;;;6244905;22;20508;-49
2024/03/10 06:51:15;;;;;;;13.55;12.15;;;;;;;;;;6244626;22;20648;-47
2024/03/10 06:53:43;;;;;;;12.73;10.73;;;;;;;;;;6244018;22;20173;-47
2024/03/10 06:56:12;;;;;;;15.25;13.63;;;;;;;;;;6242458;23;20180;-47
2024/03/10 06:58:40;;;;;;;12.75;11.10;;;;;;;;;;6244718;22;20204;-48
2024/03/10 07:01:07;;;;;;;13.60;11.85;;;;;;;;;;6244133;22;20223;-45
2024/03/10 07:03:35;;;;;;;15.80;12.73;;;;;;;;;;6244166;22;20200;-47
2024/03/10 07:06:04;;;;;;;16.30;12.52;;;;;;;;;;6244170;22;20208;-47
2024/03/10 07:08:32;;;;;;;14.73;12.98;;;;;;;;;;6244137;22;20275;-46
2024/03/10 07:11:00;;;;;;;13.80;11.60;;;;;;;;;;6244257;22;20207;-47
2024/03/10 07:13:29;;;;;;;15.88;14.13;;;;;;;;;;6243858;22;20179;-48
2024/03/10 07:15:57;;;;;;;16.02;13.55;;;;;;;;;;6244577;22;20177;-47
2024/03/10 07:18:24;;;;;;;16.15;14.45;;;;;;;;;;6244663;22;20733;-52
2024/03/10 07:20:51;;;;;;;14.38;12.88;;;;;;;;;;6244255;22;20180;-49
2024/03/10 07:23:21;;;;;;;19.58;16.15;;;;;;;;;;6244137;22;20177;-48
2024/03/10 07:25:49;;;;;;;14.75;13.18;;;;;;;;;;6246563;22;20173;-47
2024/03/10 07:28:16;;;;;;;16.95;14.70;;;;;;;;;;6246421;22;20193;-47
2024/03/10 07:30:45;;;;;;;15.57;13.98;;;;;;;;;;6246379;22;20679;-50
2024/03/10 07:33:12;;;;;;;19.25;16.13;;;;;;;;;;6246182;22;20648;-47
2024/03/10 07:35:40;;;;;;;17.85;15.15;;;;;;;;;;6246174;22;20185;-46
2024/03/10 07:38:08;;;;;;;17.80;15.00;;;;;;;;;;6245858;22;20845;-49
2024/03/10 07:40:35;;;;;;;20.27;16.38;;;;;;;;;;6246132;22;20252;-49
2024/03/10 07:43:04;;;;;;;20.92;18.63;;;;;;;;;;6246244;22;20173;-50
2024/03/10 07:45:32;;;;;;;20.33;16.80;;;;;;;;;;6246501;22;20188;-49
2024/03/10 07:48:03;;;;;;;23.17;17.60;;;;;;;;;;6246239;22;20714;-48
2024/03/10 07:50:31;;;;;;;21.70;18.00;;;;;;;;;;6246124;22;20181;-49
2024/03/10 07:52:58;;;;;;;20.63;17.98;;;;;;;;;;6246007;22;20180;-52
2024/03/10 07:55:30;;;;;;;24.20;19.88;;;;;;;;;;6245652;22;20173;-49
2024/03/10 07:57:57;;;;;;;19.63;17.52;;;;;;;;;;6246130;22;20197;-51
2024/03/10 08:00:26;;;;;;;21.63;17.83;;;;;;;;;;6246214;22;20169;-49
2024/03/10 08:02:54;;;;;;;18.05;16.17;;;;;;;;;;6246100;22;20177;-51
2024/03/10 08:05:23;;;;;;;19.38;15.32;;;;;;;;;;6245945;22;20230;-51
2024/03/10 08:07:51;;;;;;;18.77;16.83;;;;;;;;;;6245802;22;20193;-49
2024/03/10 08:10:20;;;;;;;16.55;14.85;;;;;;;;;;6245939;22;20279;-50
2024/03/10 08:12:48;;;;;;;18.90;15.98;;;;;;;;;;6246325;22;20567;-49
2024/03/10 08:15:17;;;;;;;18.40;16.17;;;;;;;;;;6246139;22;20213;-51
2024/03/10 08:17:45;;;;;;;17.05;14.55;;;;;;;;;;6246268;22;20197;-50
2024/03/10 08:20:14;;;;;;;20.80;18.23;;;;;;;;;;6245799;22;20177;-50
2024/03/10 08:22:45;;;;;;;17.98;14.75;;;;;;;;;;6246229;22;20212;-51
2024/03/10 08:25:13;;;;;;;15.88;14.20;;;;;;;;;;6246340;22;20677;-49
2024/03/10 08:27:41;;;;;;;15.00;13.40;;;;;;;;;;6246041;22;20892;-49
2024/03/10 08:30:10;;;;;;;15.05;13.45;;;;;;;;;;6246095;22;20658;-53
2024/03/10 08:32:37;;;;;;;17.30;15.23;;;;;;;;;;6245842;22;20239;-48
2024/03/10 08:35:07;;;;;;;17.27;14.32;;;;;;;;;;6246103;22;20172;-50
2024/03/10 08:37:36;;;;;;;14.00;12.50;;;;;;;;;;6245395;22;20231;-49
2024/03/10 08:40:09;;;;;;;18.70;16.48;;;;;;;;;;6245957;22;20513;-50
2024/03/10 08:42:37;;;;;;;18.75;16.75;;;;;;;;;;6246149;22;20240;-49
2024/03/10 08:45:08;;;;;;;18.73;14.73;;;;;;;;;;6245839;22;20231;-48
2024/03/10 08:47:36;;;;;;;15.48;13.40;;;;;;;;;;6245839;22;20199;-52
2024/03/10 08:50:07;;;;;;;16.85;14.27;;;;;;;;;;6245338;22;20203;-50
2024/03/10 08:52:36;;;;;;;14.25;12.50;;;;;;;;;;6246019;22;20184;-49
2024/03/10 08:55:06;;;;;;;18.35;15.60;;;;;;;;;;6246060;22;20177;-49
2024/03/10 08:57:35;;;;;;;16.25;14.23;;;;;;;;;;6245340;22;20272;-49
2024/03/10 09:00:03;;;;;;;16.63;14.93;;;;;;;;;;6245860;22;20697;-51
2024/03/10 09:02:31;;;;;;;18.13;14.57;;;;;;;;;;6245859;22;20256;-50
2024/03/10 09:05:01;;;;;;;14.40;13.00;;;;;;;;;;6245943;22;20694;-50
2024/03/10 09:07:28;;;;;;;13.10;11.65;;;;;;;;;;6245665;22;20193;-49
2024/03/10 09:09:57;;;;;;;13.30;11.98;;;;;;;;;;6245414;22;20252;-51
2024/03/10 09:12:27;;;;;;;13.88;12.57;;;;;;;;;;6245744;22;20649;-52
2024/03/10 09:14:55;;;;;;;15.38;13.35;;;;;;;;;;6246288;22;20657;-47
2024/03/10 09:17:23;;;;;;;16.30;14.05;;;;;;;;;;6245533;22;20204;-47
2024/03/10 09:19:51;;;;;;;18.92;16.70;;;;;;;;;;6245733;22;20184;-47
2024/03/10 09:22:19;;;;;;;17.25;15.43;;;;;;;;;;6245121;22;20638;-46
2024/03/10 09:24:48;;;;;;;21.75;15.82;;;;;;;;;;6245206;22;20247;-47
2024/03/10 09:27:18;;;;;;;16.42;14.70;;;;;;;;;;6245644;22;20197;-48
2024/03/10 09:29:47;;;;;;;18.17;16.10;;;;;;;;;;6245486;22;20239;-47
2024/03/10 09:32:19;;;;;;;22.98;18.65;;;;;;;;;;6245711;22;20170;-47
2024/03/10 09:34:47;;;;;;;20.85;18.65;;;;;;;;;;6245277;22;20161;-47
2024/03/10 09:37:16;;;;;;;17.60;15.75;;;;;;;;;;6244558;22;20201;-49
2024/03/10 09:39:44;;;;;;;16.00;13.95;;;;;;;;;;6245464;22;20483;-46
2024/03/10 09:42:14;;;;;;;22.30;18.13;;;;;;;;;;6245139;22;20181;-47
2024/03/10 09:44:43;;;;;;;19.67;17.08;;;;;;;;;;6245121;22;20184;-48
2024/03/10 09:47:12;;;;;;;19.00;17.05;;;;;;;;;;6245041;22;20199;-51
2024/03/10 09:49:42;;;;;;;24.25;19.33;;;;;;;;;;6245167;22;20176;-50
2024/03/10 09:52:09;;;;;;;24.00;19.70;;;;;;;;;;6244919;22;20196;-47
2024/03/10 09:54:38;;;;;;;22.33;18.15;;;;;;;;;;6245469;22;20173;-49
2024/03/10 09:57:08;;;;;;;20.35;17.08;;;;;;;;;;6245297;22;20197;-49
2024/03/10 09:59:42;;;;;;;16.13;14.20;;;;;;;;;;6245353;22;20497;-47
2024/03/10 10:02:18;;;;;;;15.77;14.13;;;;;;;;;;6245442;22;20161;-48
2024/03/10 10:04:56;;;;;;;15.43;13.82;;;;;;;;;;6244894;22;20164;-45
2024/03/10 10:07:26;;;;;;;13.73;12.32;;;;;;;;;;6245461;22;20216;-45
2024/03/10 10:09:58;;;;;;;18.33;16.20;;;;;;;;;;6245341;22;20165;-50
2024/03/10 10:12:27;;;;;;;17.48;15.63;;;;;;;;;;6244717;22;20185;-48
2024/03/10 10:14:55;;;;;;;22.40;17.65;;;;;;;;;;6245232;22;20520;-50
2024/03/10 10:17:25;;;;;;;18.35;15.75;;;;;;;;;;6244811;22;20665;-46
2024/03/10 10:19:52;;;;;;;14.88;13.18;;;;;;;;;;6245138;22;20183;-48
2024/03/10 10:22:20;;;;;;;15.73;14.07;;;;;;;;;;6244563;22;20507;-47
2024/03/10 10:25:02;;;;;;;16.83;14.38;;;;;;;;;;6245322;22;20173;-47
2024/03/10 10:27:31;;;;;;;14.43;13.02;;;;;;;;;;6244870;22;20197;-45
2024/03/10 10:29:58;;;;;;;16.45;14.75;;;;;;;;;;6245085;22;20177;-48
2024/03/10 10:32:28;;;;;;;19.08;16.95;;;;;;;;;;6244863;22;20196;-47
2024/03/10 10:34:57;;;;;;;24.20;21.27;;;;;;;;;;6244948;22;20184;-47
2024/03/10 10:37:26;;;;;;;24.45;21.20;;;;;;;;;;6244356;22;20541;-47
2024/03/10 10:39:54;;;;;;;20.10;17.65;;;;;;;;;;6244812;22;20200;-47
2024/03/10 10:42:21;;;;;;;18.63;16.63;;;;;;;;;;6244559;22;20169;-48
2024/03/10 10:44:48;;;;;;;19.35;17.25;;;;;;;;;;6244729;22;20179;-45
2024/03/10 10:47:17;;;;;;;20.80;17.98;;;;;;;;;;6244632;22;20719;-49
2024/03/10 10:49:47;;;;;;;20.45;16.42;;;;;;;;;;6244516;22;20177;-51
2024/03/10 10:52:14;;;;;;;20.83;18.48;;;;;;;;;;6244676;22;20203;-53
2024/03/10 10:54:42;;;;;;;16.63;14.82;;;;;;;;;;6244857;22;20181;-47
2024/03/10 10:57:10;;;;;;;19.27;17.33;;;;;;;;;;6244439;22;20221;-48
2024/03/10 10:59:40;;;;;;;17.77;15.88;;;;;;;;;;6243796;22;20176;-48
2024/03/10 11:02:19;;;;;;;21.65;17.45;;;;;;;;;;6244572;22;20173;-48
2024/03/10 11:04:48;;;;;;;23.08;20.50;;;;;;;;;;6244616;22;20157;-50
2024/03/10 11:07:18;;;;;;;17.02;15.18;;;;;;;;;;6243974;22;20193;-48
2024/03/10 11:09:46;;;;;;;17.40;15.65;;;;;;;;;;6244472;22;20157;-50
2024/03/10 11:12:21;;;;;;;17.15;15.40;;;;;;;;;;6244171;22;20197;-51
2024/03/10 11:14:51;;;;;;;16.00;13.95;;;;;;;;;;6244638;22;20196;-50
2024/03/10 11:17:20;;;;;;;17.27;15.43;;;;;;;;;;6243878;22;20201;-48
2024/03/10 11:19:50;;;;;;;18.25;15.90;;;;;;;;;;6243968;22;20174;-52
2024/03/10 11:22:20;;;;;;;17.00;15.30;;;;;;;;;;6244456;22;20173;-48
2024/03/10 11:25:11;;;;;;;19.05;17.05;;;;;;;;;;6244575;22;20158;-48
2024/03/10 11:27:42;;;;;;;15.90;14.27;;;;;;;;;;6244180;22;20193;-48
2024/03/10 11:30:50;;;;;;;17.35;15.48;;;;;;;;;;6244371;22;20162;-48
2024/03/10 11:33:24;;;;;;;18.92;16.13;;;;;;;;;;6244499;22;20214;-48
2024/03/10 11:35:54;;;;;;;21.38;17.17;;;;;;;;;;6243629;22;20239;-50
2024/03/10 11:38:21;;;;;;;16.20;14.57;;;;;;;;;;6243385;22;20697;-49
2024/03/10 11:41:07;;;;;;;17.38;15.57;;;;;;;;;;6244576;22;20181;-50
2024/03/10 11:43:36;;;;;;;17.55;15.75;;;;;;;;;;6244530;22;20606;-49
2024/03/10 11:46:17;;;;;;;13.93;12.43;;;;;;;;;;6244511;22;20177;-52
2024/03/10 11:48:48;;;;;;;15.48;13.05;;;;;;;;;;6243923;22;20157;-48
2024/03/10 11:51:17;;;;;;;17.42;15.63;;;;;;;;;;6244355;22;20216;-50
2024/03/10 11:53:45;;;;;;;15.68;14.07;;;;;;;;;;6244333;22;20177;-49
2024/03/10 11:56:14;;;;;;;14.55;12.93;;;;;;;;;;6243319;22;20177;-49
2024/03/10 11:58:42;;;;;;;15.15;13.65;;;;;;;;;;6244047;22;20625;-49
2024/03/10 12:01:10;;;;;;;14.18;12.68;;;;;;;;;;6244280;22;20246;-52
2024/03/10 12:03:39;;;;;;;15.90;14.30;;;;;;;;;;6244347;22;20264;-48
2024/03/10 12:06:09;;;;;;;15.18;13.68;;;;;;;;;;6244415;22;20199;-50
2024/03/10 12:08:38;;;;;;;16.20;14.27;;;;;;;;;;6243691;22;20177;-48
2024/03/10 12:11:07;;;;;;;15.38;13.63;;;;;;;;;;6245142;22;20173;-49
2024/03/10 12:13:34;;;;;;;15.07;13.23;;;;;;;;;;6245808;22;20532;-49
2024/03/10 12:16:06;;;;;;;15.57;13.98;;;;;;;;;;6244861;22;20696;-48
2024/03/10 12:18:35;;;;;;;13.57;12.25;;;;;;;;;;6245854;22;20661;-48
2024/03/10 12:21:04;;;;;;;16.25;14.55;;;;;;;;;;6246310;22;20169;-48
2024/03/10 12:23:34;;;;;;;16.08;14.23;;;;;;;;;;6245622;22;20175;-52
2024/03/10 12:26:09;;;;;;;15.85;14.10;;;;;;;;;;6245693;22;20196;-51
2024/03/10 12:28:37;;;;;;;13.45;12.05;;;;;;;;;;6246008;22;20196;-48
2024/03/10 12:31:12;;;;;;;13.98;12.52;;;;;;;;;;6245190;22;20207;-48
2024/03/10 12:33:40;;;;;;;13.63;12.23;;;;;;;;;;6246718;22;20219;-49
2024/03/10 12:36:09;;;;;;;14.98;12.75;;;;;;;;;;6245548;22;20243;-49
2024/03/10 12:38:39;;;;;;;12.95;11.05;;;;;;;;;;6246108;22;20177;-50
2024/03/10 12:41:08;;;;;;;13.80;12.40;;;;;;;;;;6246178;22;20500;-50
2024/03/10 12:43:36;;;;;;;12.45;11.35;;;;;;;;;;6245938;22;20642;-48
2024/03/10 12:46:06;;;;;;;10.90;9.55;;;;;;;;;;6246147;22;20181;-49
2024/03/10 12:48:33;;;;;;;13.85;12.38;;;;;;;;;;6245863;23;20666;-47
2024/03/10 12:51:01;;;;;;;11.52;10.43;;;;;;;;;;6245814;22;20173;-48
2024/03/10 12:53:28;;;;;;;11.88;10.65;;;;;;;;;;6245102;22;20201;-53
2024/03/10 12:55:56;;;;;;;12.30;10.48;;;;;;;;;;6245322;22;20180;-49
2024/03/10 12:58:25;;;;;;;10.63;9.63;;;;;;;;;;6245214;22;20201;-49
2024/03/10 13:00:53;;;;;;;11.43;10.32;;;;;;;;;;6245688;22;20499;-50
2024/03/10 13:03:20;;;;;;;10.48;9.38;;;;;;;;;;6245330;22;20247;-51
2024/03/10 13:05:48;;;;;;;12.35;11.18;;;;;;;;;;6244997;22;20173;-48
2024/03/10 13:08:15;;;;;;;12.05;10.88;;;;;;;;;;6243628;22;20197;-51
2024/03/10 13:10:43;;;;;;;10.85;9.75;;;;;;;;;;6244515;22;20209;-49
2024/03/10 13:13:10;;;;;;;10.07;9.05;;;;;;;;;;6244589;22;20219;-49
2024/03/10 13:15:40;;;;;;;11.73;10.52;;;;;;;;;;6245246;22;20256;-48
2024/03/10 13:18:12;;;;;;;9.98;8.95;;;;;;;;;;6245215;22;20193;-49
2024/03/10 13:20:43;;;;;;;10.55;9.32;;;;;;;;;;6245322;23;20220;-53
2024/03/10 13:23:11;;;;;;;10.13;9.07;;;;;;;;;;6245560;23;20610;-50
2024/03/10 13:25:39;;;;;;;9.45;8.55;;;;;;;;;;6245684;22;20184;-50
2024/03/10 13:28:06;;;;;;;12.52;11.23;;;;;;;;;;6245582;23;20747;-49
2024/03/10 13:30:34;;;;;;;11.50;10.38;;;;;;;;;;6245221;22;20173;-51
2024/03/10 13:33:05;;;;;;;11.10;10.00;;;;;;;;;;6244993;22;20197;-49
2024/03/10 13:35:33;;;;;;;11.80;10.70;;;;;;;;;;6245400;22;20181;-49
2024/03/10 13:38:02;;;;;;;11.27;10.18;;;;;;;;;;6244842;22;20607;-48
2024/03/10 13:40:30;;;;;;;10.95;9.80;;;;;;;;;;6245379;22;20177;-49
2024/03/10 13:42:58;;;;;;;12.45;11.18;;;;;;;;;;6245486;23;20259;-52
2024/03/10 13:45:25;;;;;;;8.50;7.72;;;;;;;;;;6244954;22;20219;-49
2024/03/10 13:47:53;;;;;;;9.52;8.57;;;;;;;;;;6245069;22;20523;-48
2024/03/10 13:50:24;;;;;;;11.05;9.70;;;;;;;;;;6244520;22;20252;-49
2024/03/10 13:52:51;;;;;;;11.02;9.93;;;;;;;;;;6244959;23;20189;-49
2024/03/10 13:55:20;;;;;;;11.88;10.73;;;;;;;;;;6244889;22;20199;-52
2024/03/10 13:57:48;;;;;;;10.75;9.65;;;;;;;;;;6244878;22;20219;-52
2024/03/10 14:00:19;;;;;;;9.05;8.15;;;;;;;;;;6244747;22;20187;-49
2024/03/10 14:02:48;;;;;;;10.32;9.13;;;;;;;;;;6245354;23;20492;-52
2024/03/10 14:05:17;;;;;;;11.98;10.77;;;;;;;;;;6245233;23;20178;-50
2024/03/10 14:07:47;;;;;;;10.13;9.13;;;;;;;;;;6245085;22;20193;-49
2024/03/10 14:10:16;;;;;;;9.52;8.70;;;;;;;;;;6245234;22;20205;-49
2024/03/10 14:12:44;;;;;;;9.52;8.63;;;;;;;;;;6245232;23;20179;-51
2024/03/10 14:15:14;;;;;;;10.45;9.45;;;;;;;;;;6244828;22;20184;-49
2024/03/10 14:17:44;;;;;;;10.32;9.30;;;;;;;;;;6244956;23;20263;-49
2024/03/10 14:20:14;;;;;;;10.60;9.23;;;;;;;;;;6245072;23;20634;-50
2024/03/10 14:22:43;;;;;;;9.98;8.98;;;;;;;;;;6244661;23;20184;-53
2024/03/10 14:25:13;;;;;;;9.95;9.05;;;;;;;;;;6244964;23;20562;-49
2024/03/10 14:27:45;;;;;;;10.25;9.25;;;;;;;;;;6244784;23;20197;-49
2024/03/10 14:30:14;;;;;;;10.70;9.70;;;;;;;;;;6245069;23;20472;-50
2024/03/10 14:32:42;;;;;;;10.55;9.45;;;;;;;;;;6244858;23;20184;-49
2024/03/10 14:35:13;;;;;;;10.93;9.82;;;;;;;;;;6244314;22;20205;-51
2024/03/10 14:37:41;;;;;;;10.80;9.70;;;;;;;;;;6244751;23;20727;-52
2024/03/10 14:40:15;;;;;;;11.73;10.57;;;;;;;;;;6244793;22;20527;-52
2024/03/10 14:42:44;;;;;;;10.15;9.07;;;;;;;;;;6244751;22;20200;-52
2024/03/10 14:45:11;;;;;;;9.20;8.05;;;;;;;;;;6244542;23;20177;-53
2024/03/10 14:47:41;;;;;;;10.50;9.50;;;;;;;;;;6244736;23;20193;-50
2024/03/10 14:50:10;;;;;;;11.25;10.15;;;;;;;;;;6244605;22;20211;-51
2024/03/10 14:52:38;;;;;;;12.00;10.75;;;;;;;;;;6244244;22;20576;-52
2024/03/10 14:55:08;;;;;;;12.60;11.30;;;;;;;;;;6244561;22;20193;-51